Time;durP1;ratioP1;P1;durP2;ratioP2;P2;SDS_P1;SDS_P2;PMS_P1;PMS_P2;Temp;Humidity;BMP_temperature;BMP_pressure;BME280_temperature;BME280_humidity;BME280_pressure;Samples;Min_cycle;Max_cycle;Signal;HPM_P1;HPM_P2
2021/06/03 00:01:12;;;;;;;3.80;1.90;;;;;;;11.35;100.00;101240.60;1771693;81;20974;-79
2021/06/03 00:03:41;;;;;;;4.50;2.22;;;;;;;11.36;100.00;101236.59;1772205;81;21388;-77
2021/06/03 00:06:09;;;;;;;2.50;2.30;;;;;;;11.36;100.00;101235.30;1771991;81;21503;-77
2021/06/03 00:08:37;;;;;;;2.70;2.50;;;;;;;11.39;100.00;101233.81;1771865;80;21046;-78
2021/06/03 00:11:09;;;;;;;2.37;2.00;;;;;;;11.40;100.00;101243.75;1771892;81;21084;-72
2021/06/03 00:13:39;;;;;;;3.83;2.20;;;;;;;11.42;100.00;101238.02;1771908;81;21408;-74
2021/06/03 00:16:12;;;;;;;3.15;2.30;;;;;;;11.43;100.00;101234.47;1772005;80;21047;-74
2021/06/03 00:18:40;;;;;;;4.45;1.92;;;;;;;11.44;100.00;101232.25;1772237;80;21029;-77
2021/06/03 00:21:08;;;;;;;2.45;1.95;;;;;;;11.46;100.00;101242.08;1772120;80;21533;-72
2021/06/03 00:23:35;;;;;;;2.40;1.92;;;;;;;11.49;100.00;101242.73;1772199;80;21790;-73
2021/06/03 00:26:04;;;;;;;3.10;2.15;;;;;;;11.50;100.00;101238.38;1771670;80;20961;-83
2021/06/03 00:28:33;;;;;;;2.95;1.90;;;;;;;11.51;100.00;101233.55;1772018;80;20951;-77
2021/06/03 00:31:00;;;;;;;4.15;2.45;;;;;;;11.51;100.00;101231.80;1772055;80;20892;-78
2021/06/03 00:33:27;;;;;;;1.98;1.87;;;;;;;11.51;100.00;101234.39;1771950;80;20979;-77
2021/06/03 00:35:55;;;;;;;3.67;2.22;;;;;;;11.51;100.00;101229.20;1772014;80;21156;-79
2021/06/03 00:38:24;;;;;;;4.65;1.90;;;;;;;11.52;100.00;101232.14;1772109;80;21003;-77
2021/06/03 00:40:53;;;;;;;2.00;1.80;;;;;;;11.53;100.00;101228.62;1772262;80;21504;-74
2021/06/03 00:43:20;;;;;;;4.33;2.08;;;;;;;11.54;100.00;101229.01;1772037;80;21514;-75
2021/06/03 00:45:49;;;;;;;2.75;2.10;;;;;;;11.55;100.00;101231.95;1771902;80;20924;-75
2021/06/03 00:48:17;;;;;;;2.65;2.15;;;;;;;11.55;100.00;101225.46;1771944;81;21160;-79
2021/06/03 00:50:48;;;;;;;2.87;1.70;;;;;;;11.57;100.00;101228.82;1771832;80;20951;-75
2021/06/03 00:53:16;;;;;;;3.15;1.90;;;;;;;11.57;100.00;101231.88;1771816;81;20968;-75
2021/06/03 00:55:48;;;;;;;1.80;1.70;;;;;;;11.57;100.00;101221.02;1772109;80;20923;-78
2021/06/03 00:58:18;;;;;;;2.12;1.60;;;;;;;11.58;100.00;101222.67;1771881;80;21025;-78
2021/06/03 01:00:49;;;;;;;2.37;1.90;;;;;;;11.59;100.00;101217.02;1771791;81;21148;-71
2021/06/03 01:03:18;;;;;;;2.05;1.82;;;;;;;11.58;100.00;101222.67;1771937;81;20999;-75
2021/06/03 01:05:52;;;;;;;2.08;1.57;;;;;;;11.59;100.00;101219.16;1772051;80;20931;-77
2021/06/03 01:08:42;;;;;;;3.40;1.92;;;;;;;11.60;100.00;101218.69;1771685;80;20939;-73
2021/06/03 01:11:30;;;;;;;3.85;2.47;;;;;;;11.60;100.00;101223.44;1771917;80;20908;-78
2021/06/03 01:14:13;;;;;;;3.45;2.30;;;;;;;11.60;100.00;101220.83;1772026;80;21150;-76
2021/06/03 01:16:42;;;;;;;3.20;2.02;;;;;;;11.60;100.00;101222.13;1772237;80;21416;-76
2021/06/03 01:19:14;;;;;;;5.67;2.42;;;;;;;11.60;100.00;101219.53;1771826;80;20943;-75
2021/06/03 01:21:50;;;;;;;2.85;2.20;;;;;;;11.60;100.00;101220.83;1771557;80;20997;-76
2021/06/03 01:24:45;;;;;;;2.75;2.47;;;;;;;11.60;100.00;101216.94;1751259;81;20872;-74
2021/06/03 01:27:19;;;;;;;3.33;2.17;;;;;;;11.61;100.00;101219.08;1771506;80;21130;-78
2021/06/03 01:30:09;;;;;;;3.25;2.52;;;;;;;11.59;100.00;101221.75;1771736;80;20928;-78
2021/06/03 01:32:45;;;;;;;2.30;2.10;;;;;;;11.59;100.00;101220.45;1772108;81;20963;-74
2021/06/03 01:35:17;;;;;;;3.30;2.22;;;;;;;11.61;100.00;101221.19;1771392;81;21014;-81
2021/06/03 01:37:45;;;;;;;3.20;2.40;;;;;;;11.61;100.00;101219.08;1771750;80;20924;-79
2021/06/03 01:40:14;;;;;;;2.35;1.90;;;;;;;11.64;100.00;101226.69;1772002;81;21204;-74
2021/06/03 01:42:42;;;;;;;5.72;2.20;;;;;;;11.63;100.00;101218.50;1771833;81;20860;-76
2021/06/03 01:45:10;;;;;;;4.30;2.30;;;;;;;11.62;100.00;101219.42;1726241;81;20936;-80
2021/06/03 01:47:38;;;;;;;2.67;2.30;;;;;;;11.64;100.00;101226.69;1771973;80;20989;-76
2021/06/03 01:50:08;;;;;;;2.92;2.37;;;;;;;11.64;100.00;101230.58;1771766;80;21002;-78
2021/06/03 01:52:39;;;;;;;3.07;2.00;;;;;;;11.64;100.00;101222.78;1771717;80;20936;-78
2021/06/03 01:55:10;;;;;;;3.67;2.33;;;;;;;11.65;100.00;101233.53;1771648;80;21478;-77
2021/06/03 01:57:37;;;;;;;3.58;2.10;;;;;;;11.65;100.00;101227.03;1772232;81;20995;-75
2021/06/03 02:00:14;;;;;;;6.08;2.02;;;;;;;11.65;100.00;101225.73;1771953;80;20936;-71
2021/06/03 02:02:46;;;;;;;4.35;2.00;;;;;;;11.66;100.00;101225.66;1772110;80;20872;-73
2021/06/03 02:05:16;;;;;;;2.40;2.20;;;;;;;11.67;100.00;101220.83;1772406;80;20975;-80
2021/06/03 02:07:44;;;;;;;3.65;2.45;;;;;;;11.68;100.00;101232.04;1772085;80;20980;-74
2021/06/03 02:10:13;;;;;;;2.80;2.17;;;;;;;11.69;100.00;101235.86;1772002;80;20873;-80
2021/06/03 02:12:49;;;;;;;3.65;2.62;;;;;;;11.69;100.00;101228.06;1772132;80;20919;-77
2021/06/03 02:15:16;;;;;;;3.20;2.62;;;;;;;11.71;100.00;101231.08;1772023;80;20979;-74
2021/06/03 02:17:46;;;;;;;4.12;2.20;;;;;;;11.72;100.00;101236.63;1772073;81;21779;-76
2021/06/03 02:20:20;;;;;;;2.42;2.22;;;;;;;11.73;100.00;101234.41;1772058;81;21027;-75
2021/06/03 02:22:49;;;;;;;3.30;2.55;;;;;;;11.75;100.00;101233.37;1772204;80;20840;-78
2021/06/03 02:25:17;;;;;;;3.90;2.80;;;;;;;11.74;100.00;101232.19;1772226;80;20971;-73
2021/06/03 02:27:44;;;;;;;4.25;2.60;;;;;;;11.74;100.00;101230.88;1772219;80;20980;-78
2021/06/03 02:30:15;;;;;;;3.35;3.05;;;;;;;11.73;100.00;101237.84;1776195;80;22010;-74
2021/06/03 02:32:43;;;;;;;6.58;2.80;;;;;;;11.73;100.00;101237.00;1749822;80;20994;-74
2021/06/03 02:35:12;;;;;;;3.30;3.00;;;;;;;11.73;100.00;101241.74;1749921;80;20944;-78
2021/06/03 02:37:41;;;;;;;3.00;2.58;;;;;;;11.73;100.00;101246.95;1778715;80;21491;-81
2021/06/03 02:40:14;;;;;;;4.10;2.75;;;;;;;11.74;100.00;101243.42;1778954;80;21050;-82
2021/06/03 02:42:42;;;;;;;2.75;2.55;;;;;;;11.74;100.00;101255.58;1779394;80;21142;-73
2021/06/03 02:45:13;;;;;;;4.53;2.87;;;;;;;11.74;100.00;101246.02;1778746;80;20907;-77
2021/06/03 02:47:41;;;;;;;5.75;2.58;;;;;;;11.74;100.00;101244.73;1779125;80;20954;-78
2021/06/03 02:50:11;;;;;;;4.37;2.30;;;;;;;11.75;100.00;101251.58;1779320;80;20928;-78
2021/06/03 02:52:39;;;;;;;3.85;2.67;;;;;;;11.76;100.00;101249.36;1780020;80;20915;-75
2021/06/03 02:55:12;;;;;;;4.83;2.70;;;;;;;11.77;100.00;101246.30;1778809;80;21157;-75
2021/06/03 02:57:40;;;;;;;3.17;2.55;;;;;;;11.78;100.00;101251.38;1778753;80;20872;-84
2021/06/03 03:00:12;;;;;;;5.05;3.02;;;;;;;11.79;100.00;101257.42;1778395;80;20930;-72
2021/06/03 03:02:39;;;;;;;5.37;2.95;;;;;;;11.81;100.00;101259.45;1749653;80;21485;-76
2021/06/03 03:05:08;;;;;;;4.08;2.65;;;;;;;11.82;100.00;101258.08;1777895;80;20970;-78
2021/06/03 03:07:36;;;;;;;6.05;2.50;;;;;;;11.83;100.00;101263.66;1777756;80;21124;-77
2021/06/03 03:10:07;;;;;;;5.10;2.90;;;;;;;11.86;100.00;101264.77;1777730;80;20962;-75
2021/06/03 03:12:36;;;;;;;4.35;3.00;;;;;;;11.88;100.00;101259.00;1777110;80;20927;-74
2021/06/03 03:15:07;;;;;;;4.65;2.60;;;;;;;11.90;100.00;101269.31;1777866;80;21497;-74
2021/06/03 03:17:34;;;;;;;2.62;2.42;;;;;;;11.92;100.00;101266.98;1778074;80;20959;-73
2021/06/03 03:20:02;;;;;;;6.08;3.08;;;;;;;11.93;100.00;101268.67;1777736;80;21068;-74
2021/06/03 03:22:31;;;;;;;5.37;3.50;;;;;;;11.97;100.00;101272.72;1777894;80;20955;-75
2021/06/03 03:24:58;;;;;;;6.55;3.15;;;;;;;12.00;100.00;101276.89;1777823;80;20968;-75
2021/06/03 03:27:27;;;;;;;4.50;3.17;;;;;;;12.02;100.00;101271.99;1777533;80;21605;-78
2021/06/03 03:29:54;;;;;;;4.03;2.98;;;;;;;12.03;100.00;101272.83;1774905;80;21044;-73
2021/06/03 03:32:21;;;;;;;5.42;3.17;;;;;;;12.04;100.00;101278.38;1775898;80;21138;-78
2021/06/03 03:34:49;;;;;;;6.45;3.45;;;;;;;12.04;100.00;101272.72;1776472;80;20876;-80
2021/06/03 03:37:17;;;;;;;4.03;3.35;;;;;;;12.05;100.00;101281.37;1772082;80;20972;-72
2021/06/03 03:39:44;;;;;;;4.00;3.60;;;;;;;12.04;100.00;101274.02;1772247;81;21466;-74
2021/06/03 03:42:12;;;;;;;7.70;4.20;;;;;;;12.07;100.00;101276.89;1772482;80;20876;-81
2021/06/03 03:44:40;;;;;;;8.25;3.77;;;;;;;12.08;100.00;101278.57;1772429;81;21134;-77
2021/06/03 03:47:08;;;;;;;4.87;3.60;;;;;;;12.09;100.00;101281.55;1771906;80;21494;-78
2021/06/03 03:49:35;;;;;;;7.47;3.70;;;;;;;12.10;100.00;101287.10;1772224;80;20994;-82
2021/06/03 03:52:03;;;;;;;7.17;3.83;;;;;;;12.09;100.00;101283.66;1771963;81;21035;-75
2021/06/03 03:54:33;;;;;;;6.17;3.87;;;;;;;12.09;100.00;101282.36;1771886;80;20931;-73
2021/06/03 03:57:00;;;;;;;7.75;3.95;;;;;;;12.10;100.00;101287.95;1771987;80;21126;-77
2021/06/03 03:59:28;;;;;;;6.83;3.70;;;;;;;12.11;100.00;101284.42;1772144;80;20994;-79
2021/06/03 04:01:56;;;;;;;8.23;3.95;;;;;;;12.13;100.00;101287.75;1772322;80;20986;-77
2021/06/03 04:04:24;;;;;;;9.40;4.30;;;;;;;12.16;100.00;101286.72;1772027;81;20963;-77
2021/06/03 04:06:56;;;;;;;7.15;4.17;;;;;;;12.18;100.00;101289.62;1772464;80;20955;-82
2021/06/03 04:09:23;;;;;;;6.10;3.75;;;;;;;12.21;100.00;101292.48;1751250;81;21798;-78
2021/06/03 04:11:51;;;;;;;6.65;4.22;;;;;;;12.24;100.00;101293.59;1772162;80;21047;-78
2021/06/03 04:14:19;;;;;;;8.78;3.80;;;;;;;12.27;100.00;101290.80;1771985;81;20951;-75
2021/06/03 04:16:46;;;;;;;8.50;3.42;;;;;;;12.31;100.00;101296.19;1772239;80;21023;-73
2021/06/03 04:19:16;;;;;;;8.63;3.83;;;;;;;12.32;100.00;101295.23;1771953;81;20924;-77
2021/06/03 04:21:43;;;;;;;6.87;3.60;;;;;;;12.36;100.00;101302.39;1776288;80;21526;-75
2021/06/03 04:24:11;;;;;;;5.17;2.95;;;;;;;12.38;100.00;101303.14;1772180;79;21022;-76
2021/06/03 04:26:38;;;;;;;8.40;3.40;;;;;;;12.41;100.00;101301.65;1772219;80;21406;-76
2021/06/03 04:29:05;;;;;;;4.65;3.37;;;;;;;12.42;100.00;101304.14;1772042;80;20944;-74
2021/06/03 04:31:33;;;;;;;6.12;2.98;;;;;;;12.46;100.00;101309.98;1777757;80;20955;-75
2021/06/03 04:34:01;;;;;;;5.97;3.65;;;;;;;12.49;100.00;101315.84;1777789;80;21157;-75
2021/06/03 04:36:28;;;;;;;9.30;3.98;;;;;;;12.52;100.00;101300.02;1777616;80;20868;-77
2021/06/03 04:38:55;;;;;;;12.28;3.58;;;;;;;12.53;100.00;101306.91;1777731;80;20990;-77
2021/06/03 04:41:22;;;;;;;5.92;3.10;;;;;;;12.57;100.00;101303.64;1777573;80;20876;-70
2021/06/03 04:43:49;;;;;;;4.08;3.10;;;;;;;12.60;100.00;101310.77;1777889;80;20876;-74
2021/06/03 04:46:16;;;;;;;9.63;3.75;;;;;;;12.63;100.00;101315.80;1777697;80;21079;-73
2021/06/03 04:48:43;;;;;;;6.00;2.72;;;;;;;12.71;100.00;101313.99;1777629;80;21045;-77
2021/06/03 04:51:11;;;;;;;6.62;3.30;;;;;;;12.77;100.00;101320.11;1777943;80;21439;-73
2021/06/03 04:53:41;;;;;;;4.62;3.08;;;;;;;12.85;100.00;101317.86;1777882;80;21450;-74
2021/06/03 04:56:08;;;;;;;6.10;3.62;;;;;;;12.91;100.00;101325.73;1778243;80;21498;-81
2021/06/03 04:58:35;;;;;;;7.10;3.40;;;;;;;12.92;100.00;101325.64;1778252;80;21775;-76
2021/06/03 05:01:02;;;;;;;3.83;2.98;;;;;;;12.98;100.00;101332.22;1777773;80;21038;-76
2021/06/03 05:03:29;;;;;;;6.35;3.37;;;;;;;13.02;100.00;101330.59;1777922;80;20970;-77
2021/06/03 05:05:56;;;;;;;7.03;3.40;;;;;;;13.06;100.00;101335.98;1777784;80;20891;-76
2021/06/03 05:08:23;;;;;;;4.62;3.35;;;;;;;13.08;100.00;101341.11;1777703;80;21010;-82
2021/06/03 05:10:50;;;;;;;6.70;3.70;;;;;;;13.10;100.00;101345.77;1777642;80;21080;-78
2021/06/03 05:13:17;;;;;;;4.10;3.10;;;;;;;13.11;100.00;101345.66;1777588;80;20971;-78
2021/06/03 05:15:45;;;;;;;7.83;3.77;;;;;;;13.15;100.00;101347.59;1777985;80;20935;-76
2021/06/03 05:18:11;;;;;;;7.67;3.12;;;;;;;13.17;100.00;101358.31;1777937;80;20891;-73
2021/06/03 05:20:41;;;;;;;5.83;3.22;;;;;;;13.17;100.00;101351.80;1777889;80;20940;-72
2021/06/03 05:23:09;;;;;;;7.47;3.30;;;;;;;13.16;100.00;101354.02;1777528;80;20978;-72
2021/06/03 05:25:37;;;;;;;7.50;3.20;;;;;;;13.15;100.00;101356.25;1777739;80;20994;-76
2021/06/03 05:28:05;;;;;;;5.60;2.98;;;;;;;13.13;100.00;101358.14;1777431;79;21015;-74
2021/06/03 05:30:32;;;;;;;4.97;3.00;;;;;;;13.15;100.00;101355.41;1777786;80;20982;-79
2021/06/03 05:32:59;;;;;;;13.15;3.80;;;;;;;13.15;100.00;101360.16;1777932;80;20860;-80
2021/06/03 05:35:26;;;;;;;8.88;3.20;;;;;;;13.18;100.00;101365.63;1777997;80;21796;-78
2021/06/03 05:37:54;;;;;;;8.23;3.00;;;;;;;13.19;100.00;101374.67;1778374;80;21048;-74
2021/06/03 05:40:24;;;;;;;6.25;2.90;;;;;;;13.22;100.00;101370.56;1778106;80;20871;-77
2021/06/03 05:42:52;;;;;;;4.30;2.90;;;;;;;13.27;100.00;101375.48;1777532;80;20935;-74
2021/06/03 05:45:19;;;;;;;10.18;3.10;;;;;;;13.32;100.00;101378.61;1749800;80;20915;-76
2021/06/03 05:47:46;;;;;;;5.50;2.92;;;;;;;13.37;100.00;101381.73;1778057;80;22023;-75
2021/06/03 05:50:15;;;;;;;4.17;2.95;;;;;;;13.41;100.00;101385.81;1777840;80;21534;-74
2021/06/03 05:52:42;;;;;;;8.83;2.92;;;;;;;13.48;100.00;101385.78;1778252;80;20836;-78
2021/06/03 05:55:12;;;;;;;8.48;2.90;;;;;;;13.52;100.00;101383.34;1778393;80;20880;-77
2021/06/03 05:57:40;;;;;;;6.95;3.22;;;;;;;13.57;100.00;101382.55;1772887;80;21038;-74
2021/06/03 06:00:16;;;;;;;6.33;2.92;;;;;;;13.62;100.00;101383.10;1764069;80;20940;-73
2021/06/03 06:02:52;;;;;;;5.17;2.83;;;;;;;13.67;100.00;101391.91;1777461;79;21560;-80
2021/06/03 06:08:02;;;;;;;8.65;2.90;;;;;;;13.74;100.00;101394.00;1777646;79;20979;-76
2021/06/03 06:10:31;;;;;;;9.35;2.90;;;;;;;13.78;100.00;101398.55;1778045;79;21593;-77
2021/06/03 06:12:58;;;;;;;7.10;2.90;;;;;;;13.81;100.00;101394.89;1778001;80;21132;-74
2021/06/03 06:15:30;;;;;;;9.25;3.00;;;;;;;13.85;100.00;101397.67;1777902;79;20928;-74
2021/06/03 06:17:58;;;;;;;5.72;2.80;;;;;;;13.88;100.00;101396.96;1777925;79;20919;-72
2021/06/03 06:20:26;;;;;;;5.20;3.10;;;;;;;13.91;100.00;101392.03;1777866;80;21121;-80
2021/06/03 06:22:55;;;;;;;7.42;2.65;;;;;;;13.93;100.00;101394.89;1777945;80;20964;-76
2021/06/03 06:25:23;;;;;;;4.45;2.75;;;;;;;13.97;100.00;101398.97;1777914;80;21761;-79
2021/06/03 06:27:50;;;;;;;6.05;2.72;;;;;;;14.00;100.00;101400.53;1777931;80;20876;-78
2021/06/03 06:30:17;;;;;;;4.00;2.98;;;;;;;14.04;100.00;101401.50;1775947;80;21006;-78
2021/06/03 06:32:46;;;;;;;9.00;2.98;;;;;;;14.10;100.00;101405.48;1772140;80;20996;-72
2021/06/03 06:35:17;;;;;;;9.00;2.95;;;;;;;14.15;100.00;101401.61;1771959;80;21062;-74
2021/06/03 06:37:44;;;;;;;5.42;3.00;;;;;;;14.26;100.00;101402.99;1772385;79;21081;-76
2021/06/03 06:40:11;;;;;;;4.67;3.00;;;;;;;14.41;100.00;101410.75;1771892;80;20987;-76
2021/06/03 06:42:38;;;;;;;7.80;3.15;;;;;;;14.53;100.00;101412.02;1772006;81;20979;-74
2021/06/03 06:45:07;;;;;;;7.33;3.05;;;;;;;14.66;100.00;101406.77;1772547;80;20987;-72
2021/06/03 06:47:37;;;;;;;8.90;3.30;;;;;;;14.77;100.00;101409.45;1772263;80;21564;-78
2021/06/03 06:50:05;;;;;;;3.77;2.72;;;;;;;14.89;100.00;101407.27;1772151;80;21137;-72
2021/06/03 06:52:32;;;;;;;10.70;2.75;;;;;;;15.02;100.00;101411.13;1771885;81;21084;-78
2021/06/03 06:54:59;;;;;;;5.92;2.90;;;;;;;15.13;100.00;101408.08;1771755;80;20987;-75
2021/06/03 06:57:27;;;;;;;3.45;3.00;;;;;;;15.23;100.00;101406.47;1763439;79;21008;-77
2021/06/03 06:59:54;;;;;;;5.28;3.22;;;;;;;15.31;100.00;101398.07;1772421;81;20876;-81
2021/06/03 07:02:22;;;;;;;8.20;2.80;;;;;;;15.42;100.00;101403.79;1741482;80;21279;-74
2021/06/03 07:04:51;;;;;;;7.05;3.12;;;;;;;15.50;100.00;101394.95;1757469;81;21013;-76
2021/06/03 07:07:18;;;;;;;7.12;2.90;;;;;;;15.61;99.78;101394.96;1771786;79;20963;-76
2021/06/03 07:09:46;;;;;;;6.03;2.65;;;;;;;15.66;97.54;101395.47;1736223;79;21250;-76
2021/06/03 07:12:17;;;;;;;8.60;2.83;;;;;;;15.73;95.45;101392.75;1750472;79;21568;-72
2021/06/03 07:14:44;;;;;;;5.78;3.05;;;;;;;15.83;96.10;101395.00;1739701;81;21143;-74
2021/06/03 07:17:11;;;;;;;6.10;3.02;;;;;;;15.97;97.22;101392.17;1739252;81;21569;-76
2021/06/03 07:19:38;;;;;;;4.55;2.77;;;;;;;16.11;94.72;101388.50;1739537;82;21045;-78
2021/06/03 07:22:07;;;;;;;8.35;3.12;;;;;;;16.27;94.68;101395.52;1740202;81;21035;-75
2021/06/03 07:24:35;;;;;;;6.15;2.90;;;;;;;16.45;94.47;101387.99;1739199;81;21041;-74
2021/06/03 07:27:05;;;;;;;7.70;2.95;;;;;;;16.66;93.08;101379.75;1739477;81;21148;-72
2021/06/03 07:29:34;;;;;;;3.98;3.05;;;;;;;16.86;91.53;101387.70;1739184;81;21356;-71
2021/06/03 07:32:04;;;;;;;11.08;2.95;;;;;;;17.01;91.56;101393.98;1744269;82;20926;-77
2021/06/03 07:34:33;;;;;;;6.80;2.92;;;;;;;17.02;85.69;101393.00;1745059;80;20955;-77
2021/06/03 07:37:03;;;;;;;5.72;2.98;;;;;;;16.95;85.55;101388.73;1745059;80;21021;-78
2021/06/03 07:39:30;;;;;;;4.30;2.87;;;;;;;16.90;86.20;101389.13;1744456;80;21899;-77
2021/06/03 07:41:59;;;;;;;8.15;2.55;;;;;;;16.85;86.94;101393.05;1744334;80;21045;-79
2021/06/03 07:44:26;;;;;;;3.15;2.42;;;;;;;16.80;85.62;101397.84;1745309;81;21033;-78
2021/06/03 07:46:53;;;;;;;5.75;2.52;;;;;;;16.76;82.96;101397.73;1744903;82;21066;-77
2021/06/03 07:49:24;;;;;;;8.35;3.50;;;;;;;16.77;84.21;101391.06;1745513;82;21026;-74
2021/06/03 07:51:51;;;;;;;6.80;2.80;;;;;;;16.81;82.76;101394.28;1719078;82;21743;-78
2021/06/03 07:54:18;;;;;;;9.53;2.62;;;;;;;16.85;83.37;101392.58;1744771;80;21097;-78
2021/06/03 07:56:52;;;;;;;8.15;2.80;;;;;;;16.92;83.25;101390.30;1744687;80;20926;-74
2021/06/03 07:59:20;;;;;;;8.30;2.85;;;;;;;17.01;84.56;101387.42;1759037;79;22177;-75
2021/06/03 08:01:48;;;;;;;11.25;3.90;;;;;;;17.10;79.48;101399.78;1758508;80;21092;-75
2021/06/03 08:04:17;;;;;;;4.75;2.67;;;;;;;17.21;78.18;101401.03;1747186;79;21826;-81
2021/06/03 08:06:44;;;;;;;8.15;3.05;;;;;;;17.28;76.46;101399.58;1745427;80;21017;-82
2021/06/03 08:09:11;;;;;;;5.45;2.72;;;;;;;17.29;78.32;101389.45;1745317;81;21093;-76
2021/06/03 08:11:39;;;;;;;6.30;2.55;;;;;;;17.36;80.60;101389.27;1744891;80;21069;-74
2021/06/03 08:14:09;;;;;;;11.33;2.95;;;;;;;17.48;76.74;101391.70;1745610;80;21129;-79
2021/06/03 08:16:40;;;;;;;5.00;2.50;;;;;;;17.65;76.40;101402.15;1729616;82;21032;-73
2021/06/03 08:19:09;;;;;;;5.85;3.17;;;;;;;17.81;74.14;101398.59;1736696;82;20990;-78
2021/06/03 08:21:36;;;;;;;5.37;2.60;;;;;;;17.86;74.43;101400.36;1735727;81;21164;-77
2021/06/03 08:24:04;;;;;;;5.72;2.80;;;;;;;17.89;76.56;101401.89;1735821;81;21086;-77
2021/06/03 08:26:32;;;;;;;7.55;2.80;;;;;;;17.93;76.27;101400.67;1736663;81;21098;-80
2021/06/03 08:29:03;;;;;;;3.37;2.47;;;;;;;17.95;76.71;101403.98;1736598;81;20964;-73
2021/06/03 08:31:30;;;;;;;5.78;2.75;;;;;;;17.97;75.89;101405.52;1732590;81;21423;-76
2021/06/03 08:34:03;;;;;;;6.87;2.80;;;;;;;17.96;76.23;101410.41;1730578;81;21066;-74
2021/06/03 08:36:29;;;;;;;9.15;3.42;;;;;;;18.02;77.49;101410.39;1730156;81;21015;-75
2021/06/03 08:38:56;;;;;;;3.95;2.65;;;;;;;18.15;76.03;101403.61;1729725;81;21137;-75
2021/06/03 08:41:25;;;;;;;3.98;2.60;;;;;;;18.32;74.24;101411.68;1730470;82;21116;-75
2021/06/03 08:43:52;;;;;;;12.33;2.85;;;;;;;18.46;74.30;101412.64;1730561;82;21585;-78
2021/06/03 08:46:21;;;;;;;7.03;2.98;;;;;;;18.51;72.34;101414.08;1730399;82;21594;-76
2021/06/03 08:48:49;;;;;;;5.55;2.67;;;;;;;18.53;73.58;101406.87;1730554;82;21059;-78
2021/06/03 08:51:19;;;;;;;9.80;3.15;;;;;;;18.53;72.27;101407.72;1730730;81;21031;-77
2021/06/03 08:53:49;;;;;;;9.05;3.08;;;;;;;18.54;71.71;101419.06;1730345;81;21098;-75
2021/06/03 08:56:21;;;;;;;4.55;2.77;;;;;;;18.52;72.77;101417.88;1730429;82;21051;-74
2021/06/03 08:58:53;;;;;;;4.67;2.50;;;;;;;18.48;70.49;101415.12;1729979;81;20993;-79
2021/06/03 09:01:25;;;;;;;6.45;2.60;;;;;;;18.48;71.76;101421.22;1730599;81;21039;-77
2021/06/03 09:03:53;;;;;;;3.00;2.58;;;;;;;18.53;70.46;101429.22;1730405;81;21087;-77
2021/06/03 09:06:20;;;;;;;11.35;3.33;;;;;;;18.57;69.93;101422.23;1730462;81;21146;-73
2021/06/03 09:08:59;;;;;;;7.33;2.70;;;;;;;18.66;69.75;101425.39;1730984;81;21031;-75
2021/06/03 09:11:31;;;;;;;4.30;2.42;;;;;;;18.73;69.15;101427.00;1730867;81;21547;-74
2021/06/03 09:14:18;;;;;;;5.45;2.90;;;;;;;18.80;68.54;101422.36;1730662;81;21034;-74
2021/06/03 09:16:50;;;;;;;4.62;2.50;;;;;;;18.92;69.10;101421.27;1730586;81;21934;-72
2021/06/03 09:19:19;;;;;;;4.67;2.35;;;;;;;19.01;68.61;101422.27;1730950;82;21062;-79
2021/06/03 09:21:51;;;;;;;7.60;2.67;;;;;;;19.08;67.88;101426.50;1730679;81;21007;-73
2021/06/03 09:24:20;;;;;;;12.80;2.87;;;;;;;19.06;69.35;101416.10;1730896;81;21670;-80
2021/06/03 09:26:58;;;;;;;5.05;2.62;;;;;;;19.11;71.21;101419.17;1730753;82;38242;-75
2021/06/03 09:29:28;;;;;;;5.45;2.65;;;;;;;19.23;68.00;101418.54;1730820;81;21775;-78
2021/06/03 09:32:12;;;;;;;3.98;2.67;;;;;;;19.26;67.84;101417.78;1735347;81;21098;-74
2021/06/03 09:34:40;;;;;;;3.52;2.05;;;;;;;19.31;65.42;101418.18;1738985;82;20966;-73
2021/06/03 09:37:11;;;;;;;5.50;2.40;;;;;;;19.33;65.94;101423.32;1739277;82;21003;-77
2021/06/03 09:39:45;;;;;;;7.30;2.75;;;;;;;19.40;65.35;101423.15;1739830;81;21581;-78
2021/06/03 09:42:18;;;;;;;5.35;2.70;;;;;;;19.50;66.24;101434.48;1739414;82;21015;-80
2021/06/03 09:44:56;;;;;;;3.65;2.40;;;;;;;19.58;66.89;101424.09;1739509;81;21139;-73
2021/06/03 09:47:36;;;;;;;3.80;2.40;;;;;;;19.71;67.93;101422.00;1752226;80;22340;-76
2021/06/03 09:50:04;;;;;;;6.83;2.55;;;;;;;19.88;66.61;101423.05;1753945;80;21120;-79
2021/06/03 09:52:34;;;;;;;5.80;2.30;;;;;;;19.98;65.46;101428.64;1753359;80;21077;-75
2021/06/03 09:55:10;;;;;;;5.45;2.83;;;;;;;20.10;63.49;101420.09;1765284;79;21091;-74
2021/06/03 09:57:43;;;;;;;9.25;2.42;;;;;;;20.25;62.38;101423.91;1779725;79;21143;-78
2021/06/03 10:00:20;;;;;;;3.25;2.08;;;;;;;20.58;62.91;101422.55;1777519;80;21058;-79
2021/06/03 10:03:00;;;;;;;7.42;2.30;;;;;;;20.89;59.61;101423.87;1778466;79;21325;-74
2021/06/03 10:05:30;;;;;;;3.58;2.20;;;;;;;21.07;58.25;101423.87;1771404;79;21077;-80
2021/06/03 10:08:07;;;;;;;8.43;2.42;;;;;;;21.19;59.23;101416.61;1767247;79;21034;-74
2021/06/03 10:10:39;;;;;;;4.67;2.22;;;;;;;21.26;57.85;101417.16;1778995;79;21973;-79
2021/06/03 10:13:09;;;;;;;6.85;2.17;;;;;;;21.32;56.61;101420.50;1779147;79;21042;-78
2021/06/03 10:15:43;;;;;;;4.55;2.35;;;;;;;21.45;56.12;101426.23;1778851;79;21528;-75
2021/06/03 10:18:15;;;;;;;4.92;2.30;;;;;;;21.36;57.60;101426.31;1765969;80;21572;-74
2021/06/03 10:20:49;;;;;;;4.97;2.02;;;;;;;21.29;54.71;101419.48;1769299;80;20999;-77
2021/06/03 10:23:28;;;;;;;5.00;2.02;;;;;;;21.30;57.37;101414.55;1756351;80;21014;-75
2021/06/03 10:26:01;;;;;;;6.75;2.20;;;;;;;21.42;57.44;101423.89;1753158;79;20995;-75
2021/06/03 10:28:29;;;;;;;5.50;1.90;;;;;;;21.44;56.84;101415.83;1748913;80;20922;-76
2021/06/03 10:31:07;;;;;;;4.72;2.40;;;;;;;21.48;54.13;101425.92;1748903;80;21082;-75
2021/06/03 10:33:31;;;;;;;6.87;2.30;;;;;;;21.54;56.72;101418.70;1749523;82;20931;-79
2021/06/03 10:36:05;;;;;;;6.83;2.27;;;;;;;21.66;57.43;101411.86;1749315;82;21102;-74
2021/06/03 10:38:33;;;;;;;10.55;2.17;;;;;;;21.75;53.95;101413.57;1749316;80;20876;-77
2021/06/03 10:41:03;;;;;;;4.75;2.45;;;;;;;21.82;52.61;101408.01;1749605;82;21056;-75
2021/06/03 10:43:36;;;;;;;3.92;2.12;;;;;;;21.84;54.94;101417.92;1749887;82;20907;-76
2021/06/03 10:46:04;;;;;;;5.47;2.20;;;;;;;21.84;55.32;101425.36;1749542;80;21010;-77
2021/06/03 10:48:31;;;;;;;6.08;1.98;;;;;;;21.74;53.03;101419.83;1749513;82;21186;-74
2021/06/03 10:50:58;;;;;;;2.72;1.80;;;;;;;21.67;48.96;101424.90;1749556;82;21113;-75
2021/06/03 10:53:28;;;;;;;5.97;2.22;;;;;;;21.69;49.54;101413.70;1749776;80;20931;-74
2021/06/03 10:55:59;;;;;;;4.97;1.87;;;;;;;21.70;52.83;101431.19;1749758;80;20957;-74
2021/06/03 10:58:35;;;;;;;6.13;2.07;;;;;;;21.85;54.38;101422.23;1739655;80;21413;-79
2021/06/03 11:01:08;;;;;;;2.72;1.82;;;;;;;22.07;50.03;101427.85;1751242;79;21153;-76
2021/06/03 11:03:47;;;;;;;5.92;2.72;;;;;;;22.12;51.43;101437.45;1774525;79;22093;-74
2021/06/03 11:06:19;;;;;;;5.83;2.20;;;;;;;22.01;52.27;101430.29;1779050;80;21593;-76
2021/06/03 11:09:02;;;;;;;3.45;1.98;;;;;;;21.76;52.81;101436.38;1778954;80;20987;-73
2021/06/03 11:11:37;;;;;;;9.35;2.55;;;;;;;21.40;53.89;101443.03;1778940;80;20841;-77
2021/06/03 11:14:19;;;;;;;3.30;2.10;;;;;;;20.99;51.96;101456.80;1778902;80;22100;-77
2021/06/03 11:16:56;;;;;;;;;;;;;;;20.72;53.71;101447.58;1780714;80;20972;-77
2021/06/03 11:19:29;;;;;;;3.83;2.00;;;;;;;20.65;54.35;101453.09;1739237;81;20134;-71
2021/06/03 11:22:03;;;;;;;5.17;2.83;;;;;;;20.86;55.28;101441.33;1709690;84;21667;-75
2021/06/03 11:24:39;;;;;;;4.30;1.85;;;;;;;21.22;52.70;101446.14;1708698;84;21483;-76
2021/06/03 11:27:11;;;;;;;5.97;2.25;;;;;;;21.53;49.01;101441.32;1709371;83;20933;-72
2021/06/03 11:29:51;;;;;;;3.55;2.00;;;;;;;21.71;48.72;101439.47;1709880;83;21148;-76
2021/06/03 11:32:26;;;;;;;9.15;2.00;;;;;;;21.83;49.15;101446.64;1705010;83;21036;-74
2021/06/03 11:34:56;;;;;;;6.75;2.00;;;;;;;21.96;49.17;101442.64;1704916;83;21520;-73